Time;durP1;ratioP1;P1;durP2;ratioP2;P2;SDS_P1;SDS_P2;PMS_P1;PMS_P2;Temp;Humidity;BMP_temperature;BMP_pressure;BME280_temperature;BME280_humidity;BME280_pressure;Samples;Min_cycle;Max_cycle;Signal;HPM_P1;HPM_P2
2021/05/01 00:02:19;;;;;;;36.22;19.58;;;8.90;90.80;;;;;;5073866;28;20074;-79
2021/05/01 00:04:45;;;;;;;27.63;18.40;;;8.90;90.70;;;;;;5073995;28;20024;-80
2021/05/01 00:07:10;;;;;;;32.00;17.90;;;8.80;91.00;;;;;;5074112;28;20476;-79
2021/05/01 00:09:36;;;;;;;33.28;18.13;;;8.90;90.80;;;;;;5074260;28;20132;-80
2021/05/01 00:12:02;;;;;;;24.70;17.20;;;8.80;90.80;;;;;;5073943;28;20052;-79
2021/05/01 00:14:27;;;;;;;32.47;19.25;;;8.80;90.70;;;;;;5073636;28;20115;-80
2021/05/01 00:16:54;;;;;;;30.80;19.40;;;8.80;90.80;;;;;;5073826;28;20013;-80
2021/05/01 00:19:20;;;;;;;27.58;19.48;;;8.80;90.90;;;;;;5075221;28;20023;-79
2021/05/01 00:21:46;;;;;;;30.42;19.48;;;8.80;90.80;;;;;;5079172;28;20013;-78
2021/05/01 00:24:13;;;;;;;28.67;19.58;;;8.90;90.60;;;;;;5075446;28;20452;-79
2021/05/01 00:26:42;;;;;;;29.83;20.83;;;8.80;90.50;;;;;;5081030;28;20017;-78
2021/05/01 00:29:07;;;;;;;30.88;20.50;;;8.80;90.20;;;;;;5076065;28;20425;-80
2021/05/01 00:31:35;;;;;;;34.30;22.17;;;8.80;90.10;;;;;;5076581;28;20020;-80
2021/05/01 00:34:01;;;;;;;35.17;23.17;;;8.70;90.20;;;;;;5094728;28;20012;-78
2021/05/01 00:36:26;;;;;;;33.88;22.85;;;8.70;90.30;;;;;;5076594;28;20027;-79
2021/05/01 00:38:54;;;;;;;37.78;23.10;;;8.70;90.50;;;;;;5076788;28;20106;-79
2021/05/01 00:41:20;;;;;;;34.58;23.88;;;8.70;90.30;;;;;;5077359;28;20020;-79
2021/05/01 00:43:46;;;;;;;34.83;22.70;;;8.60;90.40;;;;;;5077709;28;20051;-78
2021/05/01 00:46:12;;;;;;;34.25;24.55;;;8.60;90.40;;;;;;5077624;28;20015;-78
2021/05/01 00:48:38;;;;;;;37.90;25.25;;;8.60;90.30;;;;;;5077349;28;20035;-79
2021/05/01 00:51:04;;;;;;;34.72;24.83;;;8.50;90.50;;;;;;5076230;28;20021;-80
2021/05/01 00:53:32;;;;;;;40.40;28.23;;;8.60;90.50;;;;;;5075651;28;20372;-80
2021/05/01 00:55:58;;;;;;;34.17;24.80;;;8.50;90.40;;;;;;5076152;28;20197;-80
2021/05/01 00:58:24;;;;;;;38.50;25.30;;;8.50;90.30;;;;;;5076148;28;20019;-80
2021/05/01 01:03:18;;;;;;;35.55;24.35;;;8.50;90.50;;;;;;5095216;28;20031;-78
2021/05/01 01:05:44;;;;;;;37.50;24.25;;;8.50;90.50;;;;;;5076660;28;20020;-79
2021/05/01 01:08:10;;;;;;;40.15;25.63;;;8.50;90.40;;;;;;5075939;28;20495;-80
2021/05/01 01:10:36;;;;;;;38.17;24.77;;;8.40;90.30;;;;;;5075731;28;20128;-80
2021/05/01 01:13:02;;;;;;;39.58;24.52;;;8.40;90.40;;;;;;5075978;28;20385;-79
2021/05/01 01:15:30;;;;;;;43.25;25.50;;;8.40;90.50;;;;;;5075493;28;20039;-80
2021/05/01 01:17:56;;;;;;;36.50;25.88;;;8.40;90.60;;;;;;5075639;28;20511;-79
2021/05/01 01:20:23;;;;;;;40.88;28.05;;;8.30;90.50;;;;;;5075400;28;20471;-80
2021/05/01 01:22:49;;;;;;;38.45;25.20;;;8.30;90.70;;;;;;5075586;28;20019;-80
2021/05/01 01:25:15;;;;;;;45.15;27.98;;;8.30;90.60;;;;;;5075512;28;20372;-79
2021/05/01 01:27:43;;;;;;;47.17;27.00;;;8.30;90.60;;;;;;5075221;28;20044;-79
2021/05/01 01:30:11;;;;;;;41.63;27.73;;;8.30;90.70;;;;;;5075703;28;20076;-80
2021/05/01 01:32:37;;;;;;;43.38;27.27;;;8.30;90.70;;;;;;5075211;28;20104;-79
2021/05/01 01:35:03;;;;;;;45.20;26.35;;;8.20;90.70;;;;;;5093649;28;20103;-80
2021/05/01 01:37:29;;;;;;;44.55;27.85;;;8.20;90.70;;;;;;5074570;28;20100;-79
2021/05/01 01:39:54;;;;;;;45.00;26.90;;;8.20;90.70;;;;;;5075293;28;20393;-79
2021/05/01 01:42:20;;;;;;;37.30;25.80;;;8.10;90.70;;;;;;5075694;28;20016;-79
2021/05/01 01:44:46;;;;;;;43.00;29.08;;;8.10;90.90;;;;;;5093086;28;20376;-79
2021/05/01 01:47:11;;;;;;;43.83;27.67;;;8.10;90.90;;;;;;5075311;28;20157;-79
2021/05/01 01:49:40;;;;;;;36.05;26.48;;;8.10;90.90;;;;;;5074751;28;20027;-80
2021/05/01 01:52:07;;;;;;;36.08;26.55;;;8.10;90.90;;;;;;5075184;28;20085;-79
2021/05/01 01:54:32;;;;;;;34.65;25.42;;;8.00;90.90;;;;;;5074783;28;20020;-78
2021/05/01 01:56:59;;;;;;;39.03;25.63;;;8.00;90.90;;;;;;5075153;28;20012;-79
2021/05/01 01:59:26;;;;;;;41.15;26.58;;;8.00;90.80;;;;;;5074983;28;20031;-80
2021/05/01 02:01:52;;;;;;;35.45;25.50;;;8.00;91.00;;;;;;5075017;28;20047;-80
2021/05/01 02:04:17;;;;;;;36.78;24.13;;;8.00;91.00;;;;;;5075089;28;20066;-79
2021/05/01 02:06:44;;;;;;;39.70;25.58;;;8.00;91.00;;;;;;5074878;28;20024;-79
2021/05/01 02:09:10;;;;;;;35.25;23.15;;;8.00;91.00;;;;;;5074999;28;20027;-79
2021/05/01 02:11:36;;;;;;;36.50;23.92;;;7.90;91.00;;;;;;5074845;28;20426;-79
2021/05/01 02:14:03;;;;;;;36.90;25.30;;;7.90;91.10;;;;;;5092887;28;20070;-79
2021/05/01 02:16:28;;;;;;;33.63;22.63;;;7.90;91.20;;;;;;5075006;28;20055;-76
2021/05/01 02:18:54;;;;;;;33.60;23.20;;;7.90;91.20;;;;;;5078177;28;20019;-77
2021/05/01 02:21:19;;;;;;;33.47;22.95;;;7.90;91.00;;;;;;5075885;28;20102;-79
2021/05/01 02:23:45;;;;;;;36.25;23.42;;;7.90;91.00;;;;;;5079698;28;20024;-79
2021/05/01 02:26:11;;;;;;;39.47;23.63;;;7.90;91.10;;;;;;5074910;28;20461;-80
2021/05/01 02:28:36;;;;;;;32.53;22.73;;;7.90;91.10;;;;;;5074106;28;20066;-79
2021/05/01 02:31:02;;;;;;;37.85;22.83;;;7.90;91.00;;;;;;5074615;28;20160;-79
2021/05/01 02:33:29;;;;;;;33.28;22.08;;;7.80;91.10;;;;;;5073970;28;20030;-79
2021/05/01 02:35:54;;;;;;;34.85;21.45;;;7.80;91.10;;;;;;5074196;28;20016;-80
2021/05/01 02:38:20;;;;;;;36.03;21.70;;;7.70;91.10;;;;;;5074300;28;20360;-79
2021/05/01 02:40:46;;;;;;;33.55;20.65;;;7.70;91.10;;;;;;5074374;28;20373;-80
2021/05/01 02:43:12;;;;;;;36.38;22.30;;;7.70;91.20;;;;;;5092306;28;20020;-79
2021/05/01 02:45:38;;;;;;;35.03;21.00;;;7.60;91.20;;;;;;5074085;28;20023;-78
2021/05/01 02:48:05;;;;;;;32.72;19.98;;;7.60;91.30;;;;;;5073890;28;20016;-79
2021/05/01 02:50:30;;;;;;;34.67;21.13;;;7.60;91.30;;;;;;5074013;28;20043;-79
2021/05/01 02:52:56;;;;;;;35.53;22.33;;;7.50;91.30;;;;;;5092138;28;20460;-80
2021/05/01 02:55:22;;;;;;;31.13;19.60;;;7.50;91.40;;;;;;5074680;28;20019;-78
2021/05/01 02:57:51;;;;;;;30.30;19.15;;;7.50;91.50;;;;;;5074724;28;20012;-78
2021/05/01 03:00:20;;;;;;;32.37;20.53;;;7.40;91.40;;;;;;5074845;28;20024;-79
2021/05/01 03:02:46;;;;;;;38.17;21.08;;;7.40;91.40;;;;;;5074045;28;20012;-79
2021/05/01 03:05:13;;;;;;;27.48;20.10;;;7.40;91.50;;;;;;5074315;28;20452;-79
2021/05/01 03:07:39;;;;;;;28.80;20.02;;;7.40;91.50;;;;;;5074007;28;20015;-80
2021/05/01 03:10:11;;;;;;;35.42;21.05;;;7.40;91.40;;;;;;5074222;28;20012;-79
2021/05/01 03:12:37;;;;;;;34.72;19.67;;;7.40;91.40;;;;;;5073533;28;20027;-79
2021/05/01 03:15:04;;;;;;;30.92;20.13;;;7.40;91.40;;;;;;5092485;28;20016;-79
2021/05/01 03:17:30;;;;;;;32.45;21.70;;;7.30;91.40;;;;;;5073614;28;20050;-78
2021/05/01 03:19:56;;;;;;;35.10;22.45;;;7.20;91.50;;;;;;5073956;28;20012;-78
2021/05/01 03:22:22;;;;;;;33.22;21.48;;;7.20;91.50;;;;;;5073811;28;20024;-79
2021/05/01 03:24:47;;;;;;;33.47;21.42;;;7.10;91.50;;;;;;5073680;28;20024;-80
2021/05/01 03:27:13;;;;;;;39.47;21.60;;;7.10;91.50;;;;;;5073466;28;20048;-79
2021/05/01 03:29:39;;;;;;;29.88;20.98;;;7.10;91.60;;;;;;5092101;28;20472;-80
2021/05/01 03:32:05;;;;;;;40.08;21.15;;;7.00;91.50;;;;;;5073984;28;20073;-80
2021/05/01 03:34:32;;;;;;;37.72;21.90;;;7.00;91.50;;;;;;5073478;28;20193;-80
2021/05/01 03:36:58;;;;;;;31.80;20.52;;;6.90;91.50;;;;;;5074134;28;20371;-80
2021/05/01 03:39:23;;;;;;;32.85;20.95;;;6.90;91.50;;;;;;5092581;28;20008;-79
2021/05/01 03:41:50;;;;;;;32.63;22.50;;;6.90;91.50;;;;;;5073562;28;20638;-80
2021/05/01 03:44:16;;;;;;;33.35;22.17;;;6.80;91.50;;;;;;5092024;28;20089;-79
2021/05/01 03:46:42;;;;;;;30.85;20.60;;;6.80;91.50;;;;;;5073651;28;20444;-79
2021/05/01 03:49:08;;;;;;;32.05;20.88;;;6.70;91.50;;;;;;5091630;28;20357;-80
2021/05/01 03:51:33;;;;;;;32.45;21.90;;;6.70;91.50;;;;;;5073529;28;20423;-79
2021/05/01 03:53:59;;;;;;;31.95;21.60;;;6.70;91.50;;;;;;5073888;28;20023;-79
2021/05/01 03:56:25;;;;;;;32.53;21.73;;;6.60;91.50;;;;;;5073775;28;20016;-79
2021/05/01 03:58:50;;;;;;;37.28;22.40;;;6.60;91.80;;;;;;5073518;28;20376;-79
2021/05/01 04:01:16;;;;;;;33.83;22.45;;;6.60;91.50;;;;;;5073887;28;20015;-79
2021/05/01 04:03:42;;;;;;;35.90;24.02;;;6.60;91.60;;;;;;5074518;28;20027;-79
2021/05/01 04:06:08;;;;;;;34.03;23.77;;;6.50;91.60;;;;;;5077429;28;20026;-79
2021/05/01 04:08:33;;;;;;;38.17;24.25;;;6.50;91.60;;;;;;5076792;28;20035;-79
2021/05/01 04:10:59;;;;;;;33.38;23.20;;;6.40;91.80;;;;;;5077096;28;20039;-79
2021/05/01 04:13:26;;;;;;;33.60;23.15;;;6.40;91.50;;;;;;5078897;28;20055;-78
2021/05/01 04:15:52;;;;;;;36.58;24.90;;;6.40;91.60;;;;;;5080330;28;20027;-79
2021/05/01 04:18:17;;;;;;;44.85;27.70;;;6.40;91.60;;;;;;5078196;28;20020;-78
2021/05/01 04:20:44;;;;;;;41.28;25.33;;;6.30;91.70;;;;;;5080359;28;20020;-78
2021/05/01 04:23:11;;;;;;;40.50;27.75;;;6.40;91.90;;;;;;5076832;28;20020;-80
2021/05/01 04:25:37;;;;;;;42.97;29.10;;;6.30;91.90;;;;;;5076660;28;20016;-79
2021/05/01 04:28:03;;;;;;;46.53;28.65;;;6.40;92.00;;;;;;5076329;28;20411;-79
2021/05/01 04:30:29;;;;;;;46.25;28.58;;;6.30;92.10;;;;;;5094789;28;20016;-79
2021/05/01 04:32:55;;;;;;;45.60;28.95;;;6.30;92.10;;;;;;5076630;28;20479;-78
2021/05/01 04:35:21;;;;;;;42.38;28.25;;;6.30;92.10;;;;;;5095176;28;20107;-79
2021/05/01 04:37:47;;;;;;;39.42;27.90;;;6.30;92.10;;;;;;5092616;28;20024;-79
2021/05/01 04:40:13;;;;;;;43.08;29.67;;;6.30;92.10;;;;;;5076512;28;20022;-78
2021/05/01 04:42:46;;;;;;;48.58;29.50;;;6.30;92.20;;;;;;5076393;28;20028;-80
2021/05/01 04:45:13;;;;;;;41.53;29.20;;;6.30;92.20;;;;;;5076384;28;20016;-80
2021/05/01 04:47:38;;;;;;;44.95;28.67;;;6.30;92.10;;;;;;5076754;28;20026;-79
2021/05/01 04:50:05;;;;;;;44.13;28.83;;;6.40;92.10;;;;;;5077032;28;20450;-79
2021/05/01 04:52:32;;;;;;;41.03;28.33;;;6.30;92.00;;;;;;5077001;28;20579;-80
2021/05/01 04:55:01;;;;;;;43.67;27.55;;;6.40;92.10;;;;;;5076616;28;20065;-79
2021/05/01 04:57:27;;;;;;;45.13;28.83;;;6.40;92.00;;;;;;5076353;28;20016;-79
2021/05/01 04:59:52;;;;;;;46.97;28.20;;;6.40;92.00;;;;;;5075805;28;20062;-80
2021/05/01 05:02:18;;;;;;;46.42;27.75;;;6.40;92.00;;;;;;5076219;28;20488;-79
2021/05/01 05:04:43;;;;;;;34.88;27.02;;;6.40;91.90;;;;;;5075961;28;20020;-79
2021/05/01 05:07:09;;;;;;;43.40;27.55;;;6.40;91.80;;;;;;5076256;28;20020;-80
2021/05/01 05:09:34;;;;;;;35.42;24.77;;;6.60;91.80;;;;;;5093831;28;20020;-80
2021/05/01 05:12:00;;;;;;;37.05;25.70;;;6.60;91.70;;;;;;5075869;28;20024;-79
2021/05/01 05:14:25;;;;;;;37.40;24.75;;;6.60;91.60;;;;;;5093586;28;20069;-79
2021/05/01 05:16:51;;;;;;;41.35;25.83;;;6.60;91.50;;;;;;5093632;28;20043;-80
2021/05/01 05:19:17;;;;;;;40.90;25.25;;;6.60;91.50;;;;;;5076115;28;20024;-80
2021/05/01 05:21:42;;;;;;;37.53;26.30;;;6.60;91.50;;;;;;5075708;28;20444;-79
2021/05/01 05:24:08;;;;;;;37.03;25.73;;;6.70;91.50;;;;;;5075692;28;20114;-79
2021/05/01 05:26:33;;;;;;;38.03;24.48;;;6.70;91.50;;;;;;5093692;28;20016;-80
2021/05/01 05:28:59;;;;;;;34.88;25.23;;;6.80;91.40;;;;;;5075381;28;20059;-80
2021/05/01 05:31:25;;;;;;;38.05;24.33;;;6.80;91.40;;;;;;5075667;28;20019;-80
2021/05/01 05:33:50;;;;;;;37.85;24.23;;;6.90;91.40;;;;;;5075349;28;20398;-80
2021/05/01 05:36:16;;;;;;;32.17;24.20;;;6.90;91.30;;;;;;5075527;28;20460;-79
2021/05/01 05:38:42;;;;;;;39.95;26.85;;;7.00;91.30;;;;;;5074955;28;20024;-79
2021/05/01 05:41:07;;;;;;;36.65;26.95;;;7.10;91.10;;;;;;5075222;28;20065;-79
2021/05/01 05:43:34;;;;;;;42.15;26.67;;;7.10;91.30;;;;;;5093434;28;20012;-80
2021/05/01 05:46:11;;;;;;;35.22;24.27;;;7.20;91.20;;;;;;5075046;28;20349;-80
2021/05/01 05:48:37;;;;;;;31.98;24.13;;;7.30;91.20;;;;;;5093408;28;20020;-79
2021/05/01 05:51:04;;;;;;;36.85;27.33;;;7.40;91.10;;;;;;5075209;28;20448;-78
2021/05/01 05:53:29;;;;;;;38.13;23.95;;;7.40;90.80;;;;;;5075185;28;20032;-80
2021/05/01 05:55:55;;;;;;;37.08;24.08;;;7.50;90.70;;;;;;5074980;28;20020;-80
2021/05/01 05:58:21;;;;;;;38.17;25.50;;;7.50;90.70;;;;;;5075031;28;20176;-80
2021/05/01 06:00:47;;;;;;;36.83;26.55;;;7.60;90.60;;;;;;5074873;28;20051;-79
2021/05/01 06:03:15;;;;;;;42.28;25.67;;;7.60;90.40;;;;;;5075048;28;20085;-80
2021/05/01 06:05:43;;;;;;;39.53;28.05;;;7.70;90.30;;;;;;5074340;28;20105;-79
2021/05/01 06:08:10;;;;;;;40.88;26.83;;;7.70;90.30;;;;;;5075105;28;20030;-80
2021/05/01 06:10:37;;;;;;;43.65;27.02;;;7.80;90.50;;;;;;5094047;28;20467;-77
2021/05/01 06:13:04;;;;;;;39.88;26.83;;;7.80;90.20;;;;;;5096378;28;20027;-78
2021/05/01 06:15:30;;;;;;;36.20;26.60;;;7.90;89.90;;;;;;5077132;28;20015;-76
2021/05/01 06:18:01;;;;;;;36.22;26.98;;;7.90;90.10;;;;;;5077778;28;20099;-80
2021/05/01 06:20:28;;;;;;;40.08;25.58;;;8.00;90.20;;;;;;5074845;28;20048;-79
2021/05/01 06:22:55;;;;;;;35.80;25.40;;;8.10;90.00;;;;;;5092948;28;20065;-79
2021/05/01 06:25:21;;;;;;;40.45;26.75;;;8.20;89.60;;;;;;5092348;28;20008;-79
2021/05/01 06:27:51;;;;;;;45.13;26.33;;;8.20;89.50;;;;;;5073004;28;20471;-79
2021/05/01 06:30:17;;;;;;;37.38;24.75;;;8.20;89.40;;;;;;5092980;28;20040;-80
2021/05/01 06:32:44;;;;;;;30.13;22.92;;;8.30;89.10;;;;;;5074282;28;20083;-79
2021/05/01 06:35:10;;;;;;;33.40;24.50;;;8.30;88.90;;;;;;5092825;28;20016;-79
2021/05/01 06:37:39;;;;;;;35.25;24.55;;;8.40;88.60;;;;;;5078989;28;20016;-80
2021/05/01 06:40:09;;;;;;;31.20;22.40;;;8.50;88.70;;;;;;5085344;22;20056;-80
2021/05/01 06:42:41;;;;;;;33.22;23.48;;;8.70;88.40;;;;;;5015010;28;20017;-80
2021/05/01 06:45:09;;;;;;;34.92;23.10;;;8.80;88.80;;;;;;5012755;28;20029;-82
2021/05/01 06:47:39;;;;;;;36.25;23.27;;;8.90;87.50;;;;;;5011955;28;20246;-81
2021/05/01 06:50:08;;;;;;;32.45;21.60;;;9.10;87.70;;;;;;5012555;28;20029;-79
2021/05/01 06:52:41;;;;;;;32.92;21.20;;;9.20;86.90;;;;;;5012081;28;20438;-81
2021/05/01 06:55:09;;;;;;;28.17;17.85;;;9.30;86.80;;;;;;5012884;28;20508;-79
2021/05/01 06:57:36;;;;;;;28.45;14.80;;;9.50;85.50;;;;;;5011395;28;20025;-80
2021/05/01 07:00:08;;;;;;;27.15;15.10;;;9.60;84.70;;;;;;5011880;28;20022;-80
2021/05/01 07:02:40;;;;;;;27.45;16.88;;;9.60;84.10;;;;;;5012021;28;20068;-81
2021/05/01 07:05:10;;;;;;;19.42;11.90;;;9.80;83.70;;;;;;5011713;28;20029;-81
2021/05/01 07:07:36;;;;;;;;;;;9.90;83.20;;;;;;5012069;28;20037;-80
2021/05/01 07:10:06;;;;;;;27.85;14.48;;;10.00;82.80;;;;;;5011110;28;19992;-81
2021/05/01 07:12:33;;;;;;;18.48;13.07;;;10.20;82.00;;;;;;5011367;28;20417;-81
2021/05/01 07:15:03;;;;;;;24.25;14.95;;;10.50;81.10;;;;;;5011211;28;20022;-81
2021/05/01 07:17:29;;;;;;;22.60;13.93;;;10.70;81.40;;;;;;5012545;28;20014;-80
2021/05/01 07:19:57;;;;;;;16.83;10.43;;;10.80;81.90;;;;;;5010934;28;20087;-80
2021/05/01 07:22:23;;;;;;;16.88;9.43;;;11.10;78.10;;;;;;5010952;28;20037;-82
2021/05/01 07:24:48;;;;;;;19.27;8.07;;;11.10;76.90;;;;;;5010729;28;20017;-82
2021/05/01 07:27:14;;;;;;;13.65;7.30;;;10.90;74.70;;;;;;5012330;28;20459;-80
2021/05/01 07:29:41;;;;;;;17.38;7.53;;;10.70;76.60;;;;;;5010913;28;20026;-80
2021/05/01 07:32:15;;;;;;;11.93;7.30;;;10.60;77.20;;;;;;5012523;28;20030;-80
2021/05/01 07:34:50;;;;;;;11.88;7.28;;;10.60;77.60;;;;;;5011080;28;20018;-80
2021/05/01 07:37:19;;;;;;;16.15;8.98;;;10.80;78.10;;;;;;5006046;28;20065;-79
2021/05/01 07:39:50;;;;;;;17.70;9.35;;;10.90;75.50;;;;;;5027606;28;20093;-78
2021/05/01 07:42:17;;;;;;;12.75;7.18;;;10.80;75.10;;;;;;5028254;28;20022;-79
2021/05/01 07:44:44;;;;;;;15.93;8.18;;;10.60;75.30;;;;;;5027881;28;20018;-78
2021/05/01 07:47:10;;;;;;;11.75;6.72;;;10.90;75.10;;;;;;5027915;28;20024;-80
2021/05/01 07:49:38;;;;;;;14.20;7.82;;;11.00;74.60;;;;;;5027916;28;20027;-79
2021/05/01 07:52:05;;;;;;;13.25;7.63;;;11.10;74.10;;;;;;4996304;28;20076;-79
2021/05/01 07:54:33;;;;;;;11.75;7.97;;;11.30;74.10;;;;;;5027999;28;20097;-78
2021/05/01 07:56:59;;;;;;;17.92;8.43;;;11.50;73.50;;;;;;4995946;28;20021;-79
2021/05/01 07:59:25;;;;;;;17.65;7.45;;;11.80;71.00;;;;;;5027435;28;20133;-80
2021/05/01 08:01:51;;;;;;;16.73;8.75;;;11.90;71.30;;;;;;5027124;28;20080;-79
2021/05/01 08:04:19;;;;;;;15.13;7.93;;;12.20;70.10;;;;;;4995860;28;20033;-79
2021/05/01 08:06:44;;;;;;;8.10;4.70;;;12.30;66.80;;;;;;5027756;28;20018;-78
2021/05/01 08:09:10;;;;;;;9.30;6.07;;;12.00;68.00;;;;;;5029366;28;20029;-78
2021/05/01 08:11:36;;;;;;;10.88;5.88;;;11.70;68.20;;;;;;5028382;28;20029;-78
2021/05/01 08:14:04;;;;;;;7.93;4.28;;;11.50;68.50;;;;;;5029600;28;20028;-79
2021/05/01 08:16:30;;;;;;;6.05;2.50;;;11.40;70.20;;;;;;4995580;28;20024;-79
2021/05/01 08:18:57;;;;;;;8.30;3.60;;;11.70;71.50;;;;;;4995189;28;20022;-80
2021/05/01 08:21:22;;;;;;;5.28;2.50;;;12.10;69.40;;;;;;4995914;28;20097;-78
2021/05/01 08:23:48;;;;;;;5.05;2.35;;;12.30;69.80;;;;;;5027339;28;20404;-78
2021/05/01 08:26:14;;;;;;;7.93;2.38;;;12.50;69.50;;;;;;5027769;28;20022;-78
2021/05/01 08:28:40;;;;;;;4.85;2.47;;;12.70;69.00;;;;;;5027340;28;20031;-80
2021/05/01 08:31:06;;;;;;;5.90;3.50;;;12.80;69.10;;;;;;5027553;28;20026;-79
2021/05/01 08:33:32;;;;;;;6.60;3.05;;;13.10;68.50;;;;;;5026889;28;20022;-80
2021/05/01 08:35:58;;;;;;;6.50;2.78;;;13.30;68.00;;;;;;4994007;28;20022;-81
2021/05/01 08:38:24;;;;;;;8.45;3.65;;;13.40;67.30;;;;;;5026690;28;20069;-81
2021/05/01 08:40:50;;;;;;;4.00;2.47;;;13.50;67.20;;;;;;5026989;28;20105;-81
2021/05/01 08:43:17;;;;;;;5.53;2.40;;;13.70;66.70;;;;;;5033234;28;20087;-78
2021/05/01 08:45:51;;;;;;;7.50;4.13;;;13.80;66.00;;;;;;5041435;28;20108;-80
2021/05/01 08:48:17;;;;;;;10.63;5.13;;;14.00;65.20;;;;;;5026409;28;20032;-79
2021/05/01 08:50:54;;;;;;;10.93;5.18;;;14.20;63.20;;;;;;5025564;28;20018;-81
2021/05/01 08:53:21;;;;;;;12.10;4.60;;;14.30;61.70;;;;;;5026610;28;20100;-80
2021/05/01 08:55:47;;;;;;;9.70;5.57;;;14.50;62.20;;;;;;5026242;28;20402;-80
2021/05/01 08:58:12;;;;;;;10.63;5.95;;;14.80;59.60;;;;;;5026386;28;20081;-80
2021/05/01 09:00:44;;;;;;;13.27;5.55;;;15.00;58.00;;;;;;5026427;28;20136;-80
2021/05/01 09:03:12;;;;;;;8.80;4.32;;;15.00;60.50;;;;;;5026223;28;20061;-78
2021/05/01 09:05:40;;;;;;;13.13;5.72;;;14.50;58.70;;;;;;5026172;28;20030;-79
2021/05/01 09:08:08;;;;;;;6.63;3.65;;;14.20;58.80;;;;;;5026084;28;20370;-81
2021/05/01 09:10:38;;;;;;;6.80;3.53;;;13.90;63.60;;;;;;5025684;28;20015;-80
2021/05/01 09:13:12;;;;;;;6.70;3.20;;;13.80;62.70;;;;;;4993148;28;20054;-81
2021/05/01 09:15:37;;;;;;;8.45;3.53;;;13.80;65.40;;;;;;5026075;28;20338;-80
2021/05/01 09:18:05;;;;;;;6.45;3.03;;;13.70;63.70;;;;;;5025787;28;20105;-81
2021/05/01 09:20:32;;;;;;;10.02;4.57;;;13.80;63.10;;;;;;4994397;28;20010;-82
2021/05/01 09:23:06;;;;;;;9.05;4.70;;;13.80;61.80;;;;;;4994167;28;20034;-80
2021/05/01 09:25:46;;;;;;;9.52;4.22;;;13.80;60.60;;;;;;5025853;28;20463;-80
2021/05/01 09:28:14;;;;;;;14.73;3.95;;;13.60;59.40;;;;;;5025736;28;20038;-81
2021/05/01 09:30:42;;;;;;;5.85;2.45;;;13.60;61.40;;;;;;5025656;28;20473;-80
2021/05/01 09:33:27;;;;;;;5.70;2.95;;;13.60;61.40;;;;;;5025579;28;20046;-81
2021/05/01 09:36:11;;;;;;;9.43;3.47;;;13.50;61.40;;;;;;5025657;28;20352;-80
2021/05/01 09:38:41;;;;;;;12.70;6.13;;;13.50;61.30;;;;;;5025758;28;20030;-80
2021/05/01 09:41:11;;;;;;;;;;;13.50;59.60;;;;;;5025321;28;20054;-80
2021/05/01 09:43:58;;;;;;;5.40;1.60;;;13.40;66.10;;;;;;4992841;28;19952;-81
2021/05/01 09:46:24;;;;;;;9.73;3.72;;;13.30;68.50;;;;;;5025409;28;20046;-80
2021/05/01 09:49:03;;;;;;;7.00;2.95;;;13.30;64.10;;;;;;5025062;28;20022;-81
2021/05/01 09:51:42;;;;;;;9.60;4.25;;;13.10;63.10;;;;;;5025652;28;20023;-80
2021/05/01 09:54:08;;;;;;;6.10;3.13;;;13.10;62.30;;;;;;4992711;28;20073;-80
2021/05/01 09:56:34;;;;;;;3.88;1.80;;;13.30;68.20;;;;;;5025599;28;20018;-80
2021/05/01 09:59:00;;;;;;;5.18;2.03;;;13.70;67.70;;;;;;5025677;28;20030;-80
2021/05/01 10:01:26;;;;;;;6.38;2.15;;;14.30;66.70;;;;;;5025602;28;20072;-78
2021/05/01 10:04:13;;;;;;;5.55;1.75;;;14.80;64.40;;;;;;5027199;28;20439;-78
2021/05/01 10:07:07;;;;;;;7.72;3.10;;;15.10;64.20;;;;;;5030581;28;20029;-80
2021/05/01 10:09:40;;;;;;;9.93;5.03;;;15.50;61.90;;;;;;5028557;28;20022;-78
2021/05/01 10:12:10;;;;;;;7.95;4.05;;;16.00;53.40;;;;;;5026742;28;20121;-79
2021/05/01 10:14:43;;;;;;;5.47;2.37;;;16.20;49.80;;;;;;5024854;28;20014;-80
2021/05/01 10:17:17;;;;;;;4.00;1.55;;;16.00;58.50;;;;;;4991960;28;20638;-80
2021/05/01 10:19:53;;;;;;;4.00;1.40;;;15.70;61.20;;;;;;5025022;28;20028;-81
2021/05/01 10:22:43;;;;;;;3.15;1.30;;;15.30;64.40;;;;;;4992714;28;20438;-80
2021/05/01 10:25:17;;;;;;;8.65;3.85;;;15.00;66.10;;;;;;5024989;28;20026;-79
2021/05/01 10:27:43;;;;;;;8.82;3.80;;;14.80;65.20;;;;;;4992599;28;20423;-79
2021/05/01 10:30:15;;;;;;;9.07;4.60;;;14.60;63.30;;;;;;4992997;28;20446;-81
2021/05/01 10:32:45;;;;;;;8.43;4.80;;;14.40;54.50;;;;;;4991865;28;20061;-80
2021/05/01 10:35:12;;;;;;;10.67;4.57;;;14.20;52.00;;;;;;4993296;28;20406;-78
2021/05/01 10:37:46;;;;;;;9.23;4.22;;;13.80;51.00;;;;;;4993464;28;20022;-78
2021/05/01 10:40:12;;;;;;;8.80;4.07;;;13.50;52.80;;;;;;4993229;28;20043;-78
2021/05/01 10:42:38;;;;;;;10.60;4.38;;;13.20;54.40;;;;;;4992310;28;20026;-78
2021/05/01 10:45:04;;;;;;;10.13;4.55;;;12.70;55.90;;;;;;4991174;28;20015;-79
2021/05/01 10:47:31;;;;;;;11.38;5.00;;;12.60;57.90;;;;;;4991818;28;20022;-79
2021/05/01 10:49:59;;;;;;;8.68;4.88;;;12.50;57.50;;;;;;4991086;28;20033;-79
2021/05/01 10:52:25;;;;;;;18.77;12.35;;;12.40;57.70;;;;;;4991596;28;20486;-79
2021/05/01 10:55:02;;;;;;;8.55;4.40;;;12.40;58.00;;;;;;4991466;28;20054;-78
2021/05/01 10:57:29;;;;;;;10.48;5.30;;;12.40;59.00;;;;;;4989475;28;20026;-78
2021/05/01 10:59:58;;;;;;;12.10;4.38;;;12.40;59.50;;;;;;4991265;28;20022;-77
2021/05/01 11:02:34;;;;;;;8.07;4.10;;;12.50;58.40;;;;;;4989093;28;20472;-78
2021/05/01 11:05:01;;;;;;;8.65;3.90;;;12.60;58.40;;;;;;4989359;28;20032;-78
2021/05/01 11:07:41;;;;;;;8.18;4.28;;;12.70;57.40;;;;;;4991536;28;20026;-78
2021/05/01 11:10:09;;;;;;;7.72;4.53;;;12.80;55.40;;;;;;4991168;28;20487;-77
2021/05/01 11:12:37;;;;;;;9.65;3.42;;;12.90;53.60;;;;;;4991050;28;20022;-78
2021/05/01 11:15:12;;;;;;;8.52;3.40;;;13.00;53.80;;;;;;4992801;28;20022;-78
2021/05/01 11:17:51;;;;;;;8.27;3.42;;;13.40;52.90;;;;;;4996471;28;20022;-77
2021/05/01 11:20:18;;;;;;;7.68;3.22;;;13.60;50.40;;;;;;4996220;28;20037;-79
2021/05/01 11:22:55;;;;;;;10.70;3.60;;;13.90;52.60;;;;;;4995294;28;20125;-78
2021/05/01 11:25:22;;;;;;;10.32;3.10;;;14.20;54.80;;;;;;4995128;28;20153;-79
2021/05/01 11:27:54;;;;;;;7.38;3.33;;;14.60;56.20;;;;;;5002480;28;20024;-78
2021/05/01 11:30:25;;;;;;;6.40;3.08;;;14.70;47.90;;;;;;5014653;28;20076;-81
2021/05/01 11:32:52;;;;;;;10.30;3.40;;;14.60;51.30;;;;;;5013938;28;20042;-79
2021/05/01 11:35:23;;;;;;;8.75;4.00;;;14.50;48.60;;;;;;5014452;28;20359;-79
2021/05/01 11:38:00;;;;;;;6.05;3.38;;;14.20;48.70;;;;;;5014961;28;20026;-78
2021/05/01 11:40:28;;;;;;;7.75;4.00;;;14.00;52.30;;;;;;5014319;28;20049;-78
2021/05/01 11:42:56;;;;;;;10.88;3.95;;;13.80;50.00;;;;;;5014498;28;20014;-79
2021/05/01 11:46:18;;;;;;;9.48;4.65;;;13.60;50.30;;;;;;4996288;28;20021;-81
2021/05/01 11:48:55;;;;;;;7.97;3.95;;;13.40;50.80;;;;;;4971826;28;20034;-80
2021/05/01 11:51:42;;;;;;;9.38;3.72;;;13.40;50.80;;;;;;5012298;28;20362;-81
2021/05/01 11:54:21;;;;;;;15.55;10.48;;;13.30;47.30;;;;;;5014156;28;20029;-80
2021/05/01 11:56:59;;;;;;;5.60;3.97;;;13.20;52.60;;;;;;5014858;28;20061;-80
2021/05/01 11:59:26;;;;;;;6.97;3.10;;;13.10;54.90;;;;;;5015823;28;20025;-79
2021/05/01 12:02:00;;;;;;;7.32;4.03;;;13.00;48.60;;;;;;5018534;28;20018;-79
2021/05/01 12:04:58;;;;;;;7.65;3.47;;;13.00;51.40;;;;;;5016512;28;20489;-78
2021/05/01 12:07:33;;;;;;;7.30;2.78;;;13.00;49.60;;;;;;5022214;28;20022;-79
2021/05/01 12:10:05;;;;;;;8.57;5.00;;;13.00;50.00;;;;;;5014379;28;20026;-79
2021/05/01 12:12:34;;;;;;;6.05;2.75;;;13.20;52.60;;;;;;5014053;28;20459;-81
2021/05/01 12:15:02;;;;;;;8.15;2.78;;;13.70;50.10;;;;;;5013867;28;20112;-80
2021/05/01 12:17:32;;;;;;;7.63;3.03;;;13.90;49.70;;;;;;5014055;28;20025;-79
2021/05/01 12:20:10;;;;;;;6.13;3.57;;;14.00;49.60;;;;;;5013595;28;20022;-79
2021/05/01 12:22:37;;;;;;;7.35;3.40;;;14.20;48.90;;;;;;5013858;28;20018;-79
2021/05/01 12:25:31;;;;;;;7.15;4.15;;;14.20;48.60;;;;;;5012280;28;20020;-80
2021/05/01 12:27:58;;;;;;;9.38;3.85;;;14.20;48.40;;;;;;5013644;28;20034;-79
2021/05/01 12:30:46;;;;;;;9.70;4.03;;;14.10;47.90;;;;;;5013771;28;20076;-78
2021/05/01 12:33:48;;;;;;;5.22;3.28;;;13.90;48.10;;;;;;4994503;28;20029;-76
2021/05/01 12:36:16;;;;;;;7.00;4.07;;;13.70;49.10;;;;;;4996185;28;20113;-79
2021/05/01 12:38:43;;;;;;;7.32;2.72;;;13.60;48.80;;;;;;4992124;28;20022;-78
2021/05/01 12:41:18;;;;;;;8.90;3.88;;;13.50;54.40;;;;;;4993620;28;20042;-78
2021/05/01 12:43:47;;;;;;;4.60;2.50;;;13.50;50.00;;;;;;4995311;28;20471;-79
2021/05/01 12:46:28;;;;;;;9.20;3.78;;;13.40;54.90;;;;;;4993756;28;20014;-79
2021/05/01 12:48:54;;;;;;;10.80;3.72;;;13.30;50.50;;;;;;4991810;28;20064;-79
2021/05/01 12:51:24;;;;;;;7.50;3.70;;;13.30;52.30;;;;;;4990835;28;20165;-79